sensor_id;sensor_type;location;lat;lon;timestamp;P1;durP1;ratioP1;P2;durP2;ratioP2
21639;SDS011;10981;45.462;10.974;2024-03-17T00:00:10;78.20;;;45.55;;
21639;SDS011;10981;45.462;10.974;2024-03-17T00:02:44;76.55;;;44.80;;
21639;SDS011;10981;45.462;10.974;2024-03-17T00:05:11;82.05;;;45.97;;
21639;SDS011;10981;45.462;10.974;2024-03-17T00:07:39;79.07;;;45.70;;
21639;SDS011;10981;45.462;10.974;2024-03-17T00:10:06;82.75;;;47.17;;
21639;SDS011;10981;45.462;10.974;2024-03-17T00:12:34;87.75;;;47.58;;
21639;SDS011;10981;45.462;10.974;2024-03-17T00:15:01;89.82;;;48.75;;
21639;SDS011;10981;45.462;10.974;2024-03-17T00:17:33;85.97;;;47.45;;
21639;SDS011;10981;45.462;10.974;2024-03-17T00:20:01;83.95;;;47.88;;
21639;SDS011;10981;45.462;10.974;2024-03-17T00:22:37;90.50;;;47.33;;
21639;SDS011;10981;45.462;10.974;2024-03-17T00:25:07;82.85;;;48.17;;
21639;SDS011;10981;45.462;10.974;2024-03-17T00:27:34;92.70;;;51.47;;
21639;SDS011;10981;45.462;10.974;2024-03-17T00:30:06;81.55;;;46.40;;
21639;SDS011;10981;45.462;10.974;2024-03-17T00:32:39;88.03;;;48.45;;
21639;SDS011;10981;45.462;10.974;2024-03-17T00:35:09;82.07;;;45.60;;
21639;SDS011;10981;45.462;10.974;2024-03-17T00:37:40;90.47;;;49.25;;
21639;SDS011;10981;45.462;10.974;2024-03-17T00:40:07;91.18;;;50.78;;
21639;SDS011;10981;45.462;10.974;2024-03-17T00:42:35;92.50;;;49.60;;
21639;SDS011;10981;45.462;10.974;2024-03-17T00:45:02;80.18;;;44.88;;
21639;SDS011;10981;45.462;10.974;2024-03-17T00:47:32;83.05;;;46.80;;
21639;SDS011;10981;45.462;10.974;2024-03-17T00:49:59;87.88;;;49.33;;
21639;SDS011;10981;45.462;10.974;2024-03-17T00:52:26;93.75;;;49.05;;
21639;SDS011;10981;45.462;10.974;2024-03-17T00:54:54;85.05;;;48.63;;
21639;SDS011;10981;45.462;10.974;2024-03-17T00:57:21;91.93;;;50.45;;
21639;SDS011;10981;45.462;10.974;2024-03-17T00:59:49;85.00;;;48.45;;
21639;SDS011;10981;45.462;10.974;2024-03-17T01:02:18;93.30;;;49.95;;
21639;SDS011;10981;45.462;10.974;2024-03-17T01:04:47;87.00;;;48.20;;
21639;SDS011;10981;45.462;10.974;2024-03-17T01:07:15;100.57;;;49.83;;
21639;SDS011;10981;45.462;10.974;2024-03-17T01:09:42;88.75;;;49.20;;
21639;SDS011;10981;45.462;10.974;2024-03-17T01:12:10;91.70;;;49.63;;
21639;SDS011;10981;45.462;10.974;2024-03-17T01:14:37;92.03;;;51.15;;
21639;SDS011;10981;45.462;10.974;2024-03-17T01:17:04;95.70;;;51.90;;
21639;SDS011;10981;45.462;10.974;2024-03-17T01:19:32;93.32;;;49.58;;
21639;SDS011;10981;45.462;10.974;2024-03-17T01:22:00;89.68;;;48.60;;
21639;SDS011;10981;45.462;10.974;2024-03-17T01:24:28;91.15;;;47.30;;
21639;SDS011;10981;45.462;10.974;2024-03-17T01:26:59;91.13;;;48.53;;
21639;SDS011;10981;45.462;10.974;2024-03-17T01:29:27;100.07;;;49.60;;
21639;SDS011;10981;45.462;10.974;2024-03-17T01:31:54;97.65;;;50.45;;
21639;SDS011;10981;45.462;10.974;2024-03-17T01:34:22;94.45;;;51.22;;
21639;SDS011;10981;45.462;10.974;2024-03-17T01:36:49;93.07;;;51.72;;
21639;SDS011;10981;45.462;10.974;2024-03-17T01:39:17;92.68;;;49.45;;
21639;SDS011;10981;45.462;10.974;2024-03-17T01:41:44;95.30;;;49.88;;
21639;SDS011;10981;45.462;10.974;2024-03-17T01:44:32;99.93;;;50.58;;
21639;SDS011;10981;45.462;10.974;2024-03-17T01:46:59;92.57;;;50.47;;
21639;SDS011;10981;45.462;10.974;2024-03-17T01:49:26;102.72;;;52.70;;
21639;SDS011;10981;45.462;10.974;2024-03-17T01:51:54;94.90;;;50.17;;
21639;SDS011;10981;45.462;10.974;2024-03-17T01:54:22;93.40;;;49.45;;
21639;SDS011;10981;45.462;10.974;2024-03-17T01:56:49;93.30;;;51.60;;
21639;SDS011;10981;45.462;10.974;2024-03-17T01:59:16;106.25;;;54.42;;
21639;SDS011;10981;45.462;10.974;2024-03-17T02:01:44;105.07;;;54.05;;
21639;SDS011;10981;45.462;10.974;2024-03-17T02:04:11;96.88;;;54.13;;
21639;SDS011;10981;45.462;10.974;2024-03-17T02:06:39;100.57;;;51.45;;
21639;SDS011;10981;45.462;10.974;2024-03-17T02:09:07;99.63;;;53.42;;
21639;SDS011;10981;45.462;10.974;2024-03-17T02:11:35;101.82;;;54.63;;
21639;SDS011;10981;45.462;10.974;2024-03-17T02:14:03;103.55;;;54.03;;
21639;SDS011;10981;45.462;10.974;2024-03-17T02:16:32;100.43;;;54.08;;
21639;SDS011;10981;45.462;10.974;2024-03-17T02:18:59;105.88;;;55.75;;
21639;SDS011;10981;45.462;10.974;2024-03-17T02:21:29;106.38;;;54.08;;
21639;SDS011;10981;45.462;10.974;2024-03-17T02:23:57;102.85;;;53.92;;
21639;SDS011;10981;45.462;10.974;2024-03-17T02:26:25;98.93;;;53.28;;
21639;SDS011;10981;45.462;10.974;2024-03-17T02:28:53;98.78;;;52.75;;
21639;SDS011;10981;45.462;10.974;2024-03-17T02:31:20;103.93;;;55.08;;
21639;SDS011;10981;45.462;10.974;2024-03-17T02:33:49;96.63;;;53.78;;
21639;SDS011;10981;45.462;10.974;2024-03-17T02:36:16;105.47;;;53.15;;
21639;SDS011;10981;45.462;10.974;2024-03-17T02:38:44;102.15;;;52.42;;
21639;SDS011;10981;45.462;10.974;2024-03-17T02:41:29;105.15;;;53.33;;
21639;SDS011;10981;45.462;10.974;2024-03-17T02:43:57;93.45;;;49.72;;
21639;SDS011;10981;45.462;10.974;2024-03-17T02:46:25;102.43;;;55.05;;
21639;SDS011;10981;45.462;10.974;2024-03-17T02:48:52;96.95;;;50.92;;
21639;SDS011;10981;45.462;10.974;2024-03-17T02:51:20;107.28;;;58.28;;
21639;SDS011;10981;45.462;10.974;2024-03-17T02:53:48;103.63;;;53.55;;
21639;SDS011;10981;45.462;10.974;2024-03-17T02:56:17;98.43;;;52.28;;
21639;SDS011;10981;45.462;10.974;2024-03-17T02:58:45;99.15;;;51.95;;
21639;SDS011;10981;45.462;10.974;2024-03-17T03:01:13;101.15;;;55.67;;
21639;SDS011;10981;45.462;10.974;2024-03-17T03:03:41;93.88;;;51.65;;
21639;SDS011;10981;45.462;10.974;2024-03-17T03:06:09;104.53;;;52.38;;
21639;SDS011;10981;45.462;10.974;2024-03-17T03:08:38;105.07;;;52.60;;
21639;SDS011;10981;45.462;10.974;2024-03-17T03:11:07;99.45;;;52.30;;
21639;SDS011;10981;45.462;10.974;2024-03-17T03:13:40;107.10;;;53.38;;
21639;SDS011;10981;45.462;10.974;2024-03-17T03:16:12;96.00;;;51.22;;
21639;SDS011;10981;45.462;10.974;2024-03-17T03:18:40;100.63;;;54.17;;
21639;SDS011;10981;45.462;10.974;2024-03-17T03:21:10;99.05;;;52.42;;
21639;SDS011;10981;45.462;10.974;2024-03-17T03:23:41;100.93;;;52.70;;
21639;SDS011;10981;45.462;10.974;2024-03-17T03:26:10;106.72;;;52.28;;
21639;SDS011;10981;45.462;10.974;2024-03-17T03:28:38;99.45;;;52.40;;
21639;SDS011;10981;45.462;10.974;2024-03-17T03:31:05;101.63;;;52.55;;
21639;SDS011;10981;45.462;10.974;2024-03-17T03:33:36;104.90;;;53.70;;
21639;SDS011;10981;45.462;10.974;2024-03-17T03:36:08;100.95;;;51.72;;
21639;SDS011;10981;45.462;10.974;2024-03-17T03:38:39;99.13;;;51.13;;
21639;SDS011;10981;45.462;10.974;2024-03-17T03:41:07;102.80;;;52.00;;
21639;SDS011;10981;45.462;10.974;2024-03-17T03:43:41;100.65;;;51.95;;
21639;SDS011;10981;45.462;10.974;2024-03-17T03:46:09;104.43;;;53.63;;
21639;SDS011;10981;45.462;10.974;2024-03-17T03:48:36;97.22;;;52.67;;
21639;SDS011;10981;45.462;10.974;2024-03-17T03:51:04;98.85;;;50.80;;
21639;SDS011;10981;45.462;10.974;2024-03-17T03:53:33;98.07;;;51.47;;
21639;SDS011;10981;45.462;10.974;2024-03-17T03:56:02;98.75;;;51.78;;
21639;SDS011;10981;45.462;10.974;2024-03-17T03:58:33;99.72;;;51.13;;
21639;SDS011;10981;45.462;10.974;2024-03-17T04:01:04;98.13;;;51.42;;
21639;SDS011;10981;45.462;10.974;2024-03-17T04:03:35;98.97;;;52.53;;
21639;SDS011;10981;45.462;10.974;2024-03-17T04:08:35;102.63;;;52.03;;
21639;SDS011;10981;45.462;10.974;2024-03-17T04:11:03;95.85;;;50.50;;
21639;SDS011;10981;45.462;10.974;2024-03-17T04:13:31;105.28;;;51.67;;
21639;SDS011;10981;45.462;10.974;2024-03-17T04:15:59;88.18;;;48.75;;
21639;SDS011;10981;45.462;10.974;2024-03-17T04:18:27;89.22;;;47.90;;
21639;SDS011;10981;45.462;10.974;2024-03-17T04:21:05;90.28;;;48.95;;
21639;SDS011;10981;45.462;10.974;2024-03-17T04:23:35;90.40;;;50.72;;
21639;SDS011;10981;45.462;10.974;2024-03-17T04:26:03;94.78;;;48.42;;
21639;SDS011;10981;45.462;10.974;2024-03-17T04:28:35;82.25;;;45.85;;
21639;SDS011;10981;45.462;10.974;2024-03-17T04:31:03;97.25;;;48.90;;
21639;SDS011;10981;45.462;10.974;2024-03-17T04:33:32;90.10;;;47.75;;
21639;SDS011;10981;45.462;10.974;2024-03-17T04:36:00;94.18;;;46.60;;
21639;SDS011;10981;45.462;10.974;2024-03-17T04:38:30;91.25;;;47.78;;
21639;SDS011;10981;45.462;10.974;2024-03-17T04:40:58;100.32;;;50.88;;
21639;SDS011;10981;45.462;10.974;2024-03-17T04:46:02;98.68;;;49.10;;
21639;SDS011;10981;45.462;10.974;2024-03-17T04:48:31;96.50;;;49.75;;
21639;SDS011;10981;45.462;10.974;2024-03-17T04:50:59;100.30;;;52.40;;
21639;SDS011;10981;45.462;10.974;2024-03-17T04:53:27;106.88;;;54.78;;
21639;SDS011;10981;45.462;10.974;2024-03-17T04:56:02;108.25;;;54.28;;
21639;SDS011;10981;45.462;10.974;2024-03-17T04:58:31;108.68;;;54.15;;
21639;SDS011;10981;45.462;10.974;2024-03-17T05:01:03;102.03;;;54.08;;
21639;SDS011;10981;45.462;10.974;2024-03-17T05:03:33;104.30;;;53.90;;
21639;SDS011;10981;45.462;10.974;2024-03-17T05:06:01;100.50;;;52.58;;
21639;SDS011;10981;45.462;10.974;2024-03-17T05:08:30;100.82;;;52.45;;
21639;SDS011;10981;45.462;10.974;2024-03-17T05:10:59;98.95;;;50.95;;
21639;SDS011;10981;45.462;10.974;2024-03-17T05:13:34;95.90;;;50.33;;
21639;SDS011;10981;45.462;10.974;2024-03-17T05:16:02;90.10;;;48.88;;
21639;SDS011;10981;45.462;10.974;2024-03-17T05:18:29;97.85;;;48.50;;
21639;SDS011;10981;45.462;10.974;2024-03-17T05:20:59;96.80;;;49.10;;
21639;SDS011;10981;45.462;10.974;2024-03-17T05:23:31;98.13;;;50.40;;
21639;SDS011;10981;45.462;10.974;2024-03-17T05:26:00;100.93;;;49.92;;
21639;SDS011;10981;45.462;10.974;2024-03-17T05:28:29;97.28;;;51.08;;
21639;SDS011;10981;45.462;10.974;2024-03-17T05:30:56;98.28;;;52.50;;
21639;SDS011;10981;45.462;10.974;2024-03-17T05:33:25;95.53;;;50.53;;
21639;SDS011;10981;45.462;10.974;2024-03-17T05:35:59;90.13;;;47.80;;
21639;SDS011;10981;45.462;10.974;2024-03-17T05:38:29;101.85;;;51.78;;
21639;SDS011;10981;45.462;10.974;2024-03-17T05:40:57;94.65;;;48.80;;
21639;SDS011;10981;45.462;10.974;2024-03-17T05:43:26;92.13;;;49.05;;
21639;SDS011;10981;45.462;10.974;2024-03-17T05:46:00;95.25;;;49.80;;
21639;SDS011;10981;45.462;10.974;2024-03-17T05:48:29;96.55;;;52.10;;
21639;SDS011;10981;45.462;10.974;2024-03-17T05:50:56;91.75;;;48.80;;
21639;SDS011;10981;45.462;10.974;2024-03-17T05:53:23;105.97;;;52.47;;
21639;SDS011;10981;45.462;10.974;2024-03-17T05:55:50;101.97;;;51.80;;
21639;SDS011;10981;45.462;10.974;2024-03-17T05:58:18;91.43;;;49.47;;
21639;SDS011;10981;45.462;10.974;2024-03-17T06:00:45;99.07;;;52.42;;
21639;SDS011;10981;45.462;10.974;2024-03-17T06:03:12;103.18;;;53.33;;
21639;SDS011;10981;45.462;10.974;2024-03-17T06:05:40;91.88;;;50.17;;
21639;SDS011;10981;45.462;10.974;2024-03-17T06:08:08;96.93;;;51.60;;
21639;SDS011;10981;45.462;10.974;2024-03-17T06:10:36;94.70;;;50.45;;
21639;SDS011;10981;45.462;10.974;2024-03-17T06:13:04;94.78;;;50.28;;
21639;SDS011;10981;45.462;10.974;2024-03-17T06:15:32;97.93;;;50.33;;
21639;SDS011;10981;45.462;10.974;2024-03-17T06:17:59;96.25;;;51.05;;
21639;SDS011;10981;45.462;10.974;2024-03-17T06:20:28;101.97;;;50.55;;
21639;SDS011;10981;45.462;10.974;2024-03-17T06:22:55;97.85;;;50.25;;
21639;SDS011;10981;45.462;10.974;2024-03-17T06:25:23;97.30;;;51.47;;
21639;SDS011;10981;45.462;10.974;2024-03-17T06:27:50;98.22;;;49.03;;
21639;SDS011;10981;45.462;10.974;2024-03-17T06:30:18;96.10;;;49.80;;
21639;SDS011;10981;45.462;10.974;2024-03-17T06:32:46;95.13;;;51.58;;
21639;SDS011;10981;45.462;10.974;2024-03-17T06:35:13;92.03;;;51.00;;
21639;SDS011;10981;45.462;10.974;2024-03-17T06:37:42;94.80;;;50.45;;
21639;SDS011;10981;45.462;10.974;2024-03-17T06:40:10;101.10;;;52.25;;
21639;SDS011;10981;45.462;10.974;2024-03-17T06:42:40;92.65;;;50.85;;
21639;SDS011;10981;45.462;10.974;2024-03-17T06:45:08;94.95;;;50.00;;
21639;SDS011;10981;45.462;10.974;2024-03-17T06:47:35;90.90;;;48.55;;
21639;SDS011;10981;45.462;10.974;2024-03-17T06:50:04;85.70;;;47.85;;
21639;SDS011;10981;45.462;10.974;2024-03-17T06:52:33;90.43;;;47.70;;
21639;SDS011;10981;45.462;10.974;2024-03-17T06:55:00;87.72;;;47.28;;
21639;SDS011;10981;45.462;10.974;2024-03-17T06:57:27;90.22;;;49.13;;
21639;SDS011;10981;45.462;10.974;2024-03-17T06:59:55;86.63;;;47.67;;
21639;SDS011;10981;45.462;10.974;2024-03-17T07:02:22;89.32;;;48.45;;
21639;SDS011;10981;45.462;10.974;2024-03-17T07:07:43;83.22;;;45.70;;
21639;SDS011;10981;45.462;10.974;2024-03-17T07:10:11;89.30;;;49.40;;
21639;SDS011;10981;45.462;10.974;2024-03-17T07:12:39;88.40;;;48.70;;
21639;SDS011;10981;45.462;10.974;2024-03-17T07:15:07;83.72;;;48.13;;
21639;SDS011;10981;45.462;10.974;2024-03-17T07:17:35;79.97;;;48.15;;
21639;SDS011;10981;45.462;10.974;2024-03-17T07:20:03;79.93;;;47.38;;
21639;SDS011;10981;45.462;10.974;2024-03-17T07:22:34;78.72;;;43.72;;
21639;SDS011;10981;45.462;10.974;2024-03-17T07:25:02;73.65;;;42.78;;
21639;SDS011;10981;45.462;10.974;2024-03-17T07:27:30;84.95;;;44.45;;
21639;SDS011;10981;45.462;10.974;2024-03-17T07:29:58;69.05;;;42.25;;
21639;SDS011;10981;45.462;10.974;2024-03-17T07:32:25;74.43;;;43.58;;
21639;SDS011;10981;45.462;10.974;2024-03-17T07:34:53;77.60;;;44.58;;
21639;SDS011;10981;45.462;10.974;2024-03-17T07:37:20;75.68;;;45.05;;
21639;SDS011;10981;45.462;10.974;2024-03-17T07:39:47;82.40;;;47.35;;
21639;SDS011;10981;45.462;10.974;2024-03-17T07:42:15;65.82;;;42.80;;
21639;SDS011;10981;45.462;10.974;2024-03-17T07:44:43;75.93;;;45.45;;
21639;SDS011;10981;45.462;10.974;2024-03-17T07:47:10;77.82;;;45.53;;
21639;SDS011;10981;45.462;10.974;2024-03-17T07:49:38;75.00;;;44.63;;
21639;SDS011;10981;45.462;10.974;2024-03-17T07:52:05;73.25;;;43.38;;
21639;SDS011;10981;45.462;10.974;2024-03-17T07:54:32;71.00;;;44.35;;
21639;SDS011;10981;45.462;10.974;2024-03-17T07:57:01;76.82;;;45.15;;
21639;SDS011;10981;45.462;10.974;2024-03-17T07:59:28;67.43;;;43.83;;
21639;SDS011;10981;45.462;10.974;2024-03-17T08:01:56;72.82;;;43.03;;
21639;SDS011;10981;45.462;10.974;2024-03-17T08:04:24;73.53;;;42.83;;
21639;SDS011;10981;45.462;10.974;2024-03-17T08:06:51;76.97;;;46.30;;
21639;SDS011;10981;45.462;10.974;2024-03-17T08:09:19;68.38;;;43.13;;
21639;SDS011;10981;45.462;10.974;2024-03-17T08:11:46;70.35;;;42.42;;
21639;SDS011;10981;45.462;10.974;2024-03-17T08:14:14;68.15;;;42.72;;
21639;SDS011;10981;45.462;10.974;2024-03-17T08:16:41;81.57;;;46.08;;
21639;SDS011;10981;45.462;10.974;2024-03-17T08:19:09;72.35;;;44.50;;
21639;SDS011;10981;45.462;10.974;2024-03-17T08:21:36;71.40;;;44.15;;
21639;SDS011;10981;45.462;10.974;2024-03-17T08:24:03;79.63;;;44.33;;
21639;SDS011;10981;45.462;10.974;2024-03-17T08:26:31;74.10;;;43.50;;
21639;SDS011;10981;45.462;10.974;2024-03-17T08:28:58;77.68;;;44.22;;
21639;SDS011;10981;45.462;10.974;2024-03-17T08:31:25;72.97;;;43.85;;
21639;SDS011;10981;45.462;10.974;2024-03-17T08:33:52;69.72;;;42.10;;
21639;SDS011;10981;45.462;10.974;2024-03-17T08:36:20;67.95;;;41.38;;
21639;SDS011;10981;45.462;10.974;2024-03-17T08:38:47;72.65;;;42.20;;
21639;SDS011;10981;45.462;10.974;2024-03-17T08:41:14;67.93;;;41.85;;
21639;SDS011;10981;45.462;10.974;2024-03-17T08:43:42;65.50;;;42.95;;
21639;SDS011;10981;45.462;10.974;2024-03-17T08:46:10;66.78;;;42.67;;
21639;SDS011;10981;45.462;10.974;2024-03-17T08:48:40;65.43;;;41.42;;
21639;SDS011;10981;45.462;10.974;2024-03-17T08:51:10;70.43;;;42.08;;
21639;SDS011;10981;45.462;10.974;2024-03-17T08:53:38;66.60;;;40.10;;
21639;SDS011;10981;45.462;10.974;2024-03-17T08:56:05;61.63;;;37.25;;
21639;SDS011;10981;45.462;10.974;2024-03-17T08:58:32;61.70;;;38.83;;
21639;SDS011;10981;45.462;10.974;2024-03-17T09:01:03;60.45;;;37.72;;
21639;SDS011;10981;45.462;10.974;2024-03-17T09:03:33;60.67;;;37.13;;
21639;SDS011;10981;45.462;10.974;2024-03-17T09:06:04;62.63;;;36.80;;
21639;SDS011;10981;45.462;10.974;2024-03-17T09:08:40;61.30;;;37.45;;
21639;SDS011;10981;45.462;10.974;2024-03-17T09:11:14;61.92;;;36.25;;
21639;SDS011;10981;45.462;10.974;2024-03-17T09:13:41;56.03;;;34.90;;
21639;SDS011;10981;45.462;10.974;2024-03-17T09:16:08;58.33;;;35.05;;
21639;SDS011;10981;45.462;10.974;2024-03-17T09:18:37;56.08;;;36.83;;
21639;SDS011;10981;45.462;10.974;2024-03-17T09:21:07;61.38;;;36.50;;
21639;SDS011;10981;45.462;10.974;2024-03-17T09:23:34;56.35;;;34.47;;
21639;SDS011;10981;45.462;10.974;2024-03-17T09:26:06;57.67;;;36.45;;
21639;SDS011;10981;45.462;10.974;2024-03-17T09:28:35;63.50;;;36.72;;
21639;SDS011;10981;45.462;10.974;2024-03-17T09:31:03;57.25;;;33.10;;
21639;SDS011;10981;45.462;10.974;2024-03-17T09:33:34;54.58;;;33.28;;
21639;SDS011;10981;45.462;10.974;2024-03-17T09:36:03;50.58;;;32.10;;
21639;SDS011;10981;45.462;10.974;2024-03-17T09:41:03;55.30;;;32.17;;
21639;SDS011;10981;45.462;10.974;2024-03-17T09:43:32;54.38;;;34.03;;
21639;SDS011;10981;45.462;10.974;2024-03-17T09:46:02;55.80;;;34.28;;
21639;SDS011;10981;45.462;10.974;2024-03-17T09:48:30;53.85;;;33.35;;
21639;SDS011;10981;45.462;10.974;2024-03-17T09:51:01;51.00;;;34.25;;
21639;SDS011;10981;45.462;10.974;2024-03-17T09:53:34;52.88;;;33.88;;
21639;SDS011;10981;45.462;10.974;2024-03-17T09:56:08;49.85;;;31.65;;
21639;SDS011;10981;45.462;10.974;2024-03-17T09:58:48;57.25;;;33.55;;
21639;SDS011;10981;45.462;10.974;2024-03-17T10:01:16;45.83;;;28.45;;
21639;SDS011;10981;45.462;10.974;2024-03-17T10:06:21;48.00;;;29.75;;
21639;SDS011;10981;45.462;10.974;2024-03-17T10:08:57;54.10;;;31.85;;
21639;SDS011;10981;45.462;10.974;2024-03-17T10:11:41;47.13;;;29.08;;
21639;SDS011;10981;45.462;10.974;2024-03-17T10:14:09;45.85;;;29.13;;
21639;SDS011;10981;45.462;10.974;2024-03-17T10:16:38;45.42;;;27.40;;
21639;SDS011;10981;45.462;10.974;2024-03-17T10:19:09;43.03;;;25.90;;
21639;SDS011;10981;45.462;10.974;2024-03-17T10:21:44;43.15;;;24.52;;
21639;SDS011;10981;45.462;10.974;2024-03-17T10:24:25;39.10;;;24.30;;
21639;SDS011;10981;45.462;10.974;2024-03-17T10:26:55;39.75;;;25.95;;
21639;SDS011;10981;45.462;10.974;2024-03-17T10:29:24;46.22;;;27.73;;
21639;SDS011;10981;45.462;10.974;2024-03-17T10:32:03;37.30;;;23.95;;
21639;SDS011;10981;45.462;10.974;2024-03-17T10:34:39;35.08;;;22.85;;
21639;SDS011;10981;45.462;10.974;2024-03-17T10:37:19;32.00;;;20.23;;
21639;SDS011;10981;45.462;10.974;2024-03-17T10:39:53;38.63;;;25.40;;
21639;SDS011;10981;45.462;10.974;2024-03-17T10:42:27;36.83;;;23.00;;
21639;SDS011;10981;45.462;10.974;2024-03-17T10:44:57;49.05;;;25.42;;
21639;SDS011;10981;45.462;10.974;2024-03-17T10:47:25;39.50;;;25.52;;
21639;SDS011;10981;45.462;10.974;2024-03-17T10:49:55;43.58;;;23.73;;
21639;SDS011;10981;45.462;10.974;2024-03-17T10:52:23;36.33;;;21.42;;
21639;SDS011;10981;45.462;10.974;2024-03-17T10:54:55;37.80;;;23.50;;
21639;SDS011;10981;45.462;10.974;2024-03-17T11:00:02;38.30;;;24.15;;
21639;SDS011;10981;45.462;10.974;2024-03-17T11:02:44;35.00;;;21.63;;
21639;SDS011;10981;45.462;10.974;2024-03-17T11:07:48;41.78;;;25.73;;
21639;SDS011;10981;45.462;10.974;2024-03-17T11:10:22;38.85;;;24.65;;
21639;SDS011;10981;45.462;10.974;2024-03-17T11:12:56;40.17;;;25.55;;
21639;SDS011;10981;45.462;10.974;2024-03-17T11:20:38;40.92;;;27.77;;
21639;SDS011;10981;45.462;10.974;2024-03-17T11:23:06;47.63;;;29.10;;
21639;SDS011;10981;45.462;10.974;2024-03-17T11:28:03;42.85;;;27.00;;
21639;SDS011;10981;45.462;10.974;2024-03-17T11:39:02;45.42;;;28.15;;
21639;SDS011;10981;45.462;10.974;2024-03-17T11:41:41;42.63;;;29.10;;
21639;SDS011;10981;45.462;10.974;2024-03-17T11:46:59;44.33;;;30.05;;
21639;SDS011;10981;45.462;10.974;2024-03-17T11:49:28;48.20;;;30.70;;
21639;SDS011;10981;45.462;10.974;2024-03-17T11:54:40;49.72;;;30.38;;
21639;SDS011;10981;45.462;10.974;2024-03-17T11:57:22;50.28;;;29.83;;
21639;SDS011;10981;45.462;10.974;2024-03-17T11:59:51;46.25;;;30.13;;
21639;SDS011;10981;45.462;10.974;2024-03-17T12:02:23;43.85;;;28.55;;
21639;SDS011;10981;45.462;10.974;2024-03-17T12:04:57;44.40;;;29.45;;
21639;SDS011;10981;45.462;10.974;2024-03-17T12:07:26;46.33;;;28.58;;
21639;SDS011;10981;45.462;10.974;2024-03-17T12:09:56;46.58;;;29.05;;
21639;SDS011;10981;45.462;10.974;2024-03-17T12:12:24;45.13;;;28.52;;
21639;SDS011;10981;45.462;10.974;2024-03-17T12:15:02;44.40;;;29.48;;
21639;SDS011;10981;45.462;10.974;2024-03-17T12:17:42;43.95;;;28.38;;
21639;SDS011;10981;45.462;10.974;2024-03-17T12:20:19;45.35;;;30.08;;
21639;SDS011;10981;45.462;10.974;2024-03-17T12:22:47;42.63;;;27.77;;
21639;SDS011;10981;45.462;10.974;2024-03-17T12:25:18;48.50;;;29.70;;
21639;SDS011;10981;45.462;10.974;2024-03-17T12:27:47;47.00;;;29.17;;
21639;SDS011;10981;45.462;10.974;2024-03-17T12:30:15;42.75;;;28.33;;
21639;SDS011;10981;45.462;10.974;2024-03-17T12:32:44;44.80;;;29.48;;
21639;SDS011;10981;45.462;10.974;2024-03-17T12:35:16;47.60;;;30.27;;
21639;SDS011;10981;45.462;10.974;2024-03-17T12:37:46;45.08;;;30.67;;
21639;SDS011;10981;45.462;10.974;2024-03-17T12:40:18;50.67;;;30.98;;
21639;SDS011;10981;45.462;10.974;2024-03-17T12:42:49;47.20;;;30.20;;
21639;SDS011;10981;45.462;10.974;2024-03-17T12:45:20;49.55;;;31.77;;
21639;SDS011;10981;45.462;10.974;2024-03-17T12:47:49;50.00;;;31.45;;
21639;SDS011;10981;45.462;10.974;2024-03-17T12:50:18;45.17;;;30.35;;
21639;SDS011;10981;45.462;10.974;2024-03-17T12:52:52;42.85;;;27.95;;
21639;SDS011;10981;45.462;10.974;2024-03-17T12:55:21;46.55;;;28.15;;
21639;SDS011;10981;45.462;10.974;2024-03-17T12:58:08;39.50;;;27.92;;
21639;SDS011;10981;45.462;10.974;2024-03-17T13:00:59;40.38;;;28.75;;
21639;SDS011;10981;45.462;10.974;2024-03-17T13:06:00;43.17;;;28.77;;
21639;SDS011;10981;45.462;10.974;2024-03-17T13:08:34;44.03;;;29.13;;
21639;SDS011;10981;45.462;10.974;2024-03-17T13:11:03;44.25;;;28.75;;
21639;SDS011;10981;45.462;10.974;2024-03-17T13:13:35;42.93;;;29.80;;
21639;SDS011;10981;45.462;10.974;2024-03-17T13:16:02;41.53;;;29.30;;
21639;SDS011;10981;45.462;10.974;2024-03-17T13:18:30;40.85;;;28.52;;
21639;SDS011;10981;45.462;10.974;2024-03-17T13:20:57;44.78;;;29.85;;
21639;SDS011;10981;45.462;10.974;2024-03-17T13:23:25;42.15;;;29.80;;
21639;SDS011;10981;45.462;10.974;2024-03-17T13:25:52;42.33;;;27.95;;
21639;SDS011;10981;45.462;10.974;2024-03-17T13:28:19;43.92;;;28.85;;
21639;SDS011;10981;45.462;10.974;2024-03-17T13:30:46;45.90;;;28.98;;
21639;SDS011;10981;45.462;10.974;2024-03-17T13:33:14;43.65;;;30.73;;
21639;SDS011;10981;45.462;10.974;2024-03-17T13:35:42;44.45;;;29.50;;
21639;SDS011;10981;45.462;10.974;2024-03-17T13:38:09;42.47;;;30.60;;
21639;SDS011;10981;45.462;10.974;2024-03-17T13:40:38;40.22;;;28.67;;
21639;SDS011;10981;45.462;10.974;2024-03-17T13:43:09;44.55;;;29.20;;
21639;SDS011;10981;45.462;10.974;2024-03-17T13:45:42;41.08;;;28.63;;
21639;SDS011;10981;45.462;10.974;2024-03-17T13:48:10;43.58;;;29.30;;
21639;SDS011;10981;45.462;10.974;2024-03-17T13:50:38;44.13;;;29.05;;
21639;SDS011;10981;45.462;10.974;2024-03-17T13:53:08;43.65;;;28.27;;
21639;SDS011;10981;45.462;10.974;2024-03-17T13:55:35;43.03;;;28.50;;
21639;SDS011;10981;45.462;10.974;2024-03-17T13:58:03;40.90;;;28.70;;
21639;SDS011;10981;45.462;10.974;2024-03-17T14:00:31;41.78;;;26.67;;
21639;SDS011;10981;45.462;10.974;2024-03-17T14:03:04;43.35;;;27.65;;
21639;SDS011;10981;45.462;10.974;2024-03-17T14:05:31;43.67;;;26.73;;
21639;SDS011;10981;45.462;10.974;2024-03-17T14:08:00;38.67;;;27.13;;
21639;SDS011;10981;45.462;10.974;2024-03-17T14:10:28;37.22;;;25.10;;
21639;SDS011;10981;45.462;10.974;2024-03-17T14:12:56;40.35;;;25.40;;
21639;SDS011;10981;45.462;10.974;2024-03-17T14:15:23;39.53;;;24.70;;
21639;SDS011;10981;45.462;10.974;2024-03-17T14:17:53;43.08;;;25.88;;
21639;SDS011;10981;45.462;10.974;2024-03-17T14:20:20;34.38;;;25.25;;
21639;SDS011;10981;45.462;10.974;2024-03-17T14:22:48;36.42;;;26.65;;
21639;SDS011;10981;45.462;10.974;2024-03-17T14:25:23;39.65;;;25.85;;
21639;SDS011;10981;45.462;10.974;2024-03-17T14:27:51;37.63;;;24.73;;
21639;SDS011;10981;45.462;10.974;2024-03-17T14:30:19;42.90;;;25.90;;
21639;SDS011;10981;45.462;10.974;2024-03-17T14:32:47;35.65;;;22.45;;
21639;SDS011;10981;45.462;10.974;2024-03-17T14:35:15;32.22;;;21.75;;
21639;SDS011;10981;45.462;10.974;2024-03-17T14:37:43;37.70;;;23.05;;
21639;SDS011;10981;45.462;10.974;2024-03-17T14:40:15;34.83;;;22.67;;
21639;SDS011;10981;45.462;10.974;2024-03-17T14:42:54;34.35;;;22.52;;
21639;SDS011;10981;45.462;10.974;2024-03-17T14:45:22;32.15;;;21.67;;
21639;SDS011;10981;45.462;10.974;2024-03-17T14:47:49;32.72;;;22.65;;
21639;SDS011;10981;45.462;10.974;2024-03-17T14:50:18;30.42;;;20.85;;
21639;SDS011;10981;45.462;10.974;2024-03-17T14:52:45;34.10;;;22.13;;
21639;SDS011;10981;45.462;10.974;2024-03-17T14:55:12;33.78;;;20.35;;
21639;SDS011;10981;45.462;10.974;2024-03-17T14:57:40;30.70;;;20.67;;
21639;SDS011;10981;45.462;10.974;2024-03-17T15:00:09;31.60;;;20.85;;